Dades meteomassalio
Diari Summary for Setembre 2, 2017 Units:  Metric    English   Both
« Previous Day
Next Day »
Diari Semanal Mensual Anual Personalitzat
  Maxima: Minima: Mijana:
Temperatura: 24.4 °C 12.2 °C 18.3 °C
Rosada: 11.1 °C 4.5 °C 9.2 °C
Humitat: 71 % 38 % 57 %
Velocitat del vent: 46.3 km/h 0.0 km/h 25.4 km/h
Racha vent: 46.3 km/h - -
Vent:- - SW
Pressio: 1025.3 hPa 1020.9 hPa -
Pluja: 0.0 mm    
Historical Graphs
 
 
Tabular Data for Setembre 2, 2017
Time Temperature Dew Point Pressure Wind Wind Speed Wind Gust Humidity Rainfall Rate (Hourly) solar Conditions
00:01 17.8 °C 9.7 °C 1023.2 hPa SSW 31.5 km/h 31.5 km/h 59 % 0.0 mm 0.0 W/m2 CLR
00:06 17.8 °C 9.7 °C 1023.2 hPa SW 33.3 km/h 33.3 km/h 59 % 0.0 mm 0.0 W/m2 CLR
00:11 17.2 °C 9.1 °C 1023.2 hPa SW 33.8 km/h 33.8 km/h 59 % 0.0 mm 0.0 W/m2 CLR
00:16 17.2 °C 9.1 °C 1023.2 hPa SSW 31.5 km/h 31.5 km/h 59 % 0.0 mm 0.0 W/m2 CLR
00:21 17.2 °C 9.1 °C 1023.2 hPa SSW 38.9 km/h 38.9 km/h 59 % 0.0 mm 0.0 W/m2 CLR
00:26 17.2 °C 9.1 °C 1023.2 hPa SW 38.9 km/h 38.9 km/h 59 % 0.0 mm 0.0 W/m2 CLR
00:31 17.2 °C 9.1 °C 1023.2 hPa SW 33.3 km/h 33.3 km/h 59 % 0.0 mm 0.0 W/m2 CLR
00:36 17.2 °C 9.1 °C 1023.2 hPa SW 32.2 km/h 32.2 km/h 59 % 0.0 mm 0.0 W/m2 CLR
00:41 17.2 °C 9.4 °C 1023.6 hPa SW 31.5 km/h 31.5 km/h 60 % 0.0 mm 0.0 W/m2 CLR
00:46 16.7 °C 8.9 °C 1023.2 hPa SSW 35.2 km/h 35.2 km/h 60 % 0.0 mm 0.0 W/m2 CLR
00:51 16.7 °C 8.9 °C 1023.6 hPa SW 37.0 km/h 37.0 km/h 60 % 0.0 mm 0.0 W/m2 CLR
00:56 16.7 °C 8.9 °C 1023.6 hPa SSW 38.9 km/h 38.9 km/h 60 % 0.0 mm 0.0 W/m2 CLR
01:01 16.7 °C 8.9 °C 1023.6 hPa SSW 42.6 km/h 42.6 km/h 60 % 0.0 mm 0.0 W/m2 CLR
01:06 16.7 °C 9.1 °C 1023.6 hPa SSW 27.8 km/h 27.8 km/h 61 % 0.0 mm 0.0 W/m2 CLR
01:11 16.7 °C 9.1 °C 1023.6 hPa SSW 31.5 km/h 31.5 km/h 61 % 0.0 mm 0.0 W/m2 CLR
01:16 16.7 °C 9.3 °C 1023.6 hPa SSW 38.9 km/h 38.9 km/h 62 % 0.0 mm 0.0 W/m2 CLR
01:21 16.7 °C 9.3 °C 1023.6 hPa SW 40.7 km/h 40.7 km/h 62 % 0.0 mm 0.0 W/m2 CLR
01:26 16.7 °C 9.3 °C 1023.6 hPa SSW 37.0 km/h 37.0 km/h 62 % 0.0 mm 0.0 W/m2 CLR
01:31 16.1 °C 9.1 °C 1023.6 hPa South 33.3 km/h 33.3 km/h 63 % 0.0 mm 0.0 W/m2 CLR
01:36 16.1 °C 9.1 °C 1023.2 hPa SW 33.3 km/h 33.3 km/h 63 % 0.0 mm 0.0 W/m2 CLR
01:41 16.1 °C 9.3 °C 1023.6 hPa SSW 32.2 km/h 32.2 km/h 64 % 0.0 mm 0.0 W/m2 CLR
01:46 16.1 °C 9.3 °C 1023.6 hPa SSW 37.0 km/h 37.0 km/h 64 % 0.0 mm 0.0 W/m2 CLR
01:51 16.1 °C 9.5 °C 1023.6 hPa SSW 33.3 km/h 33.3 km/h 65 % 0.0 mm 0.0 W/m2 CLR
01:56 16.1 °C 9.5 °C 1023.6 hPa SSW 35.2 km/h 35.2 km/h 65 % 0.0 mm 0.0 W/m2 CLR
02:01 16.1 °C 9.8 °C 1023.6 hPa SSW 31.5 km/h 31.5 km/h 66 % 0.0 mm 0.0 W/m2 CLR
02:06 16.1 °C 9.8 °C 1023.6 hPa SSW 31.5 km/h 31.5 km/h 66 % 0.0 mm 0.0 W/m2 CLR
02:12 16.1 °C 9.8 °C 1023.6 hPa SSW 24.1 km/h 24.9 km/h 66 % 0.0 mm 0.0 W/m2 CLR
02:17 16.1 °C 9.8 °C 1023.6 hPa SW 40.7 km/h 40.7 km/h 66 % 0.0 mm 0.0 W/m2 CLR
02:22 16.1 °C 9.8 °C 1023.9 hPa SW 33.3 km/h 33.3 km/h 66 % 0.0 mm 0.0 W/m2 CLR
02:27 16.1 °C 9.8 °C 1023.6 hPa SSW 33.3 km/h 33.3 km/h 66 % 0.0 mm 0.0 W/m2 CLR
02:32 16.1 °C 9.8 °C 1023.9 hPa SW 33.8 km/h 33.8 km/h 66 % 0.0 mm 0.0 W/m2 CLR
02:37 16.1 °C 9.8 °C 1023.9 hPa SSW 35.2 km/h 35.2 km/h 66 % 0.0 mm 0.0 W/m2 CLR
02:42 15.6 °C 9.4 °C 1023.9 hPa SSW 33.8 km/h 33.8 km/h 67 % 0.0 mm 0.0 W/m2 CLR
02:47 15.6 °C 9.4 °C 1023.6 hPa SSW 29.6 km/h 29.6 km/h 67 % 0.0 mm 0.0 W/m2 CLR
02:52 15.6 °C 9.4 °C 1023.9 hPa SSW 31.5 km/h 31.5 km/h 67 % 0.0 mm 0.0 W/m2 CLR
02:57 15.6 °C 9.4 °C 1023.6 hPa SSW 31.5 km/h 31.5 km/h 67 % 0.0 mm 0.0 W/m2 CLR
03:02 15.6 °C 9.4 °C 1023.6 hPa SSW 31.5 km/h 31.5 km/h 67 % 0.0 mm 0.0 W/m2 CLR
03:07 15.6 °C 9.4 °C 1023.9 hPa SSW 25.9 km/h 25.9 km/h 67 % 0.0 mm 0.0 W/m2 CLR
03:12 15.6 °C 9.4 °C 1023.9 hPa SSW 29.6 km/h 29.6 km/h 67 % 0.0 mm 0.0 W/m2 CLR
03:17 15.6 °C 9.4 °C 1023.9 hPa South 42.6 km/h 42.6 km/h 67 % 0.0 mm 0.0 W/m2 CLR
03:18 15.6 °C 9.4 °C 1023.9 hPa SSW 42.6 km/h 42.6 km/h 67 % 0.0 mm 0.0 W/m2 CLR
03:23 15.6 °C 9.4 °C 1023.9 hPa SSW 20.9 km/h 20.9 km/h 67 % 0.0 mm 0.0 W/m2 CLR
03:28 15.6 °C 9.7 °C 1023.9 hPa SSW 35.2 km/h 35.2 km/h 68 % 0.0 mm 0.0 W/m2 CLR
03:33 15.6 °C 9.7 °C 1023.9 hPa SW 35.2 km/h 35.2 km/h 68 % 0.0 mm 0.0 W/m2 CLR
03:38 15.6 °C 9.7 °C 1024.3 hPa SSW 24.1 km/h 24.1 km/h 68 % 0.0 mm 0.0 W/m2 CLR
03:43 15.6 °C 9.7 °C 1023.9 hPa SSW 31.5 km/h 31.5 km/h 68 % 0.0 mm 0.0 W/m2 CLR
03:48 15.6 °C 9.7 °C 1023.9 hPa SSW 32.2 km/h 32.2 km/h 68 % 0.0 mm 0.0 W/m2 CLR
03:53 15.6 °C 9.7 °C 1023.9 hPa SSW 32.2 km/h 32.2 km/h 68 % 0.0 mm 0.0 W/m2 CLR
03:58 15.6 °C 9.7 °C 1023.9 hPa SSE 31.5 km/h 31.5 km/h 68 % 0.0 mm 0.0 W/m2 CLR
04:03 15.0 °C 9.1 °C 1023.9 hPa South 24.1 km/h 24.1 km/h 68 % 0.0 mm 0.0 W/m2 CLR
04:08 15.0 °C 9.1 °C 1024.3 hPa SSW 22.2 km/h 22.2 km/h 68 % 0.0 mm 0.0 W/m2 CLR
04:13 15.0 °C 9.3 °C 1024.3 hPa SSW 18.5 km/h 18.5 km/h 69 % 0.0 mm 0.0 W/m2 CLR
04:18 15.0 °C 9.3 °C 1023.9 hPa South 18.5 km/h 18.5 km/h 69 % 0.0 mm 0.0 W/m2 CLR
04:23 15.0 °C 9.3 °C 1024.3 hPa South 18.5 km/h 18.5 km/h 69 % 0.0 mm 0.0 W/m2 CLR
04:28 15.0 °C 9.6 °C 1024.3 hPa SE 16.7 km/h 16.7 km/h 70 % 0.0 mm 0.0 W/m2 CLR
04:33 15.0 °C 9.6 °C 1023.9 hPa SSW 20.4 km/h 20.4 km/h 70 % 0.0 mm 0.0 W/m2 CLR
04:38 14.4 °C 9.1 °C 1023.9 hPa South 16.7 km/h 16.7 km/h 70 % 0.0 mm 0.0 W/m2 CLR
04:43 15.0 °C 9.6 °C 1023.9 hPa SSW 24.1 km/h 24.1 km/h 70 % 0.0 mm 0.0 W/m2 CLR
04:48 15.0 °C 9.6 °C 1023.9 hPa South 27.8 km/h 27.8 km/h 70 % 0.0 mm 0.0 W/m2 CLR
04:53 15.0 °C 9.6 °C 1023.9 hPa SSW 18.5 km/h 18.5 km/h 70 % 0.0 mm 0.0 W/m2 CLR
04:58 15.0 °C 9.6 °C 1023.9 hPa SSW 24.1 km/h 24.1 km/h 70 % 0.0 mm 0.0 W/m2 CLR
05:03 15.0 °C 9.6 °C 1023.9 hPa South 22.2 km/h 22.2 km/h 70 % 0.0 mm 0.0 W/m2 CLR
05:08 15.0 °C 9.6 °C 1023.6 hPa SSW 31.5 km/h 31.5 km/h 70 % 0.0 mm 0.0 W/m2 CLR
05:14 15.0 °C 9.6 °C 1023.6 hPa SSW 27.8 km/h 27.8 km/h 70 % 0.0 mm 0.0 W/m2 CLR
05:19 15.0 °C 9.3 °C 1023.6 hPa SSW 29.6 km/h 29.6 km/h 69 % 0.0 mm 0.0 W/m2 CLR
05:23 15.0 °C 9.6 °C 1023.6 hPa SSW 18.5 km/h 18.5 km/h 70 % 0.0 mm 0.0 W/m2 CLR
05:24 15.0 °C 9.6 °C 1023.6 hPa SSW 18.5 km/h 18.5 km/h 70 % 0.0 mm 0.0 W/m2 CLR
05:26 15.0 °C 9.6 °C 1023.6 hPa South 16.7 km/h 16.7 km/h 70 % 0.0 mm 0.0 W/m2 CLR
05:31 15.0 °C 9.6 °C 1023.6 hPa SSW 29.0 km/h 29.0 km/h 70 % 0.0 mm 0.0 W/m2 CLR
05:34 15.0 °C 9.3 °C 1023.6 hPa South 22.2 km/h 22.2 km/h 69 % 0.0 mm 0.0 W/m2 CLR
05:36 14.4 °C 9.1 °C 1023.6 hPa SSW 27.8 km/h 27.8 km/h 70 % 0.0 mm 0.0 W/m2 CLR
05:41 15.0 °C 9.6 °C 1023.6 hPa SSW 22.2 km/h 22.2 km/h 70 % 0.0 mm 0.0 W/m2 CLR
05:46 15.0 °C 9.3 °C 1023.9 hPa SSW 25.9 km/h 25.9 km/h 69 % 0.0 mm 0.0 W/m2 CLR
05:51 15.0 °C 9.6 °C 1023.6 hPa SSW 29.6 km/h 29.6 km/h 70 % 0.0 mm 0.0 W/m2 CLR
05:56 14.4 °C 9.1 °C 1023.9 hPa South 29.6 km/h 29.6 km/h 70 % 0.0 mm 0.0 W/m2 CLR
06:01 14.4 °C 8.8 °C 1023.9 hPa SSW 24.1 km/h 24.1 km/h 69 % 0.0 mm 0.0 W/m2 CLR
06:06 14.4 °C 9.1 °C 1023.9 hPa SSW 27.8 km/h 27.8 km/h 70 % 0.0 mm 0.0 W/m2 CLR
06:11 14.4 °C 9.1 °C 1023.9 hPa SSW 18.5 km/h 18.5 km/h 70 % 0.0 mm 0.0 W/m2 CLR
06:16 14.4 °C 9.1 °C 1024.3 hPa SSW 27.8 km/h 27.8 km/h 70 % 0.0 mm 0.0 W/m2 CLR
06:21 14.4 °C 9.1 °C 1023.9 hPa SW 27.8 km/h 27.8 km/h 70 % 0.0 mm 0.0 W/m2 CLR
06:26 14.4 °C 9.1 °C 1024.3 hPa SSW 18.5 km/h 18.5 km/h 70 % 0.0 mm 0.0 W/m2 CLR
06:31 14.4 °C 9.2 °C 1023.9 hPa SSW 20.9 km/h 20.9 km/h 71 % 0.0 mm 0.0 W/m2 CLR
06:36 14.4 °C 9.2 °C 1024.3 hPa SSW 27.8 km/h 27.8 km/h 71 % 0.0 mm 0.0 W/m2 CLR
06:41 14.4 °C 9.2 °C 1023.9 hPa SSW 20.9 km/h 20.9 km/h 71 % 0.0 mm 0.0 W/m2 CLR
06:46 14.4 °C 9.2 °C 1024.3 hPa SSW 27.8 km/h 27.8 km/h 71 % 0.0 mm 0.0 W/m2 CLR
06:51 14.4 °C 9.2 °C 1024.3 hPa SW 31.5 km/h 31.5 km/h 71 % 0.0 mm 0.0 W/m2 CLR
06:56 13.9 °C 8.7 °C 1024.3 hPa South 29.6 km/h 29.6 km/h 71 % 0.0 mm 0.0 W/m2 CLR
07:01 13.9 °C 8.7 °C 1024.3 hPa SSW 20.4 km/h 20.4 km/h 71 % 0.0 mm 0.0 W/m2 CLR
07:06 14.4 °C 9.2 °C 1024.3 hPa SW 24.1 km/h 24.1 km/h 71 % 0.0 mm 0.0 W/m2 CLR
07:11 13.9 °C 8.7 °C 1024.3 hPa SSW 22.2 km/h 22.2 km/h 71 % 0.0 mm 0.0 W/m2 CLR
07:21 13.9 °C 8.5 °C 1024.3 hPa SW 22.2 km/h 22.2 km/h 70 % 0.0 mm 0.0 W/m2 OVC
07:26 13.9 °C 8.7 °C 1024.3 hPa SSW 24.1 km/h 24.1 km/h 71 % 0.0 mm 0.0 W/m2 OVC
07:31 13.9 °C 8.5 °C 1024.3 hPa SSW 20.4 km/h 20.4 km/h 70 % 0.0 mm 7.0 W/m2 BKN
07:36 14.4 °C 9.2 °C 1024.3 hPa SW 27.4 km/h 27.4 km/h 71 % 0.0 mm 11.0 W/m2 BKN
07:41 14.4 °C 9.1 °C 1024.3 hPa SSW 25.9 km/h 25.9 km/h 70 % 0.0 mm 14.0 W/m2 BKN
07:46 14.4 °C 9.1 °C 1024.3 hPa SW 29.6 km/h 29.6 km/h 70 % 0.0 mm 18.0 W/m2 BKN
07:51 14.4 °C 9.1 °C 1024.6 hPa SW 32.2 km/h 32.2 km/h 70 % 0.0 mm 21.0 W/m2 BKN
07:56 14.4 °C 9.1 °C 1024.6 hPa SSW 31.5 km/h 31.5 km/h 70 % 0.0 mm 26.0 W/m2 BKN
08:01 14.4 °C 9.1 °C 1024.6 hPa SW 24.1 km/h 24.1 km/h 70 % 0.0 mm 33.0 W/m2 BKN
08:06 14.4 °C 9.1 °C 1024.6 hPa SW 22.5 km/h 22.5 km/h 70 % 0.0 mm 44.0 W/m2 BKN
08:11 14.4 °C 9.1 °C 1024.6 hPa SW 27.8 km/h 27.8 km/h 70 % 0.0 mm 56.0 W/m2 SCT
08:16 14.4 °C 8.8 °C 1024.6 hPa South 29.6 km/h 29.6 km/h 69 % 0.0 mm 69.0 W/m2 SCT
08:21 14.4 °C 8.8 °C 1024.9 hPa South 20.9 km/h 20.9 km/h 69 % 0.0 mm 72.0 W/m2 FEW
08:26 14.4 °C 8.8 °C 1024.9 hPa South 27.8 km/h 27.8 km/h 69 % 0.0 mm 84.0 W/m2 FEW
08:31 15.0 °C 9.3 °C 1024.9 hPa SSW 18.5 km/h 18.5 km/h 69 % 0.0 mm 114.0 W/m2 FEW
08:36 15.0 °C 9.1 °C 1024.9 hPa SSW 22.2 km/h 22.2 km/h 68 % 0.0 mm 130.0 W/m2 CLR
08:41 15.0 °C 9.1 °C 1024.9 hPa South 25.9 km/h 25.9 km/h 68 % 0.0 mm 148.0 W/m2 CLR
08:46 15.0 °C 9.1 °C 1024.9 hPa South 24.1 km/h 24.1 km/h 68 % 0.0 mm 165.0 W/m2 CLR
08:51 15.0 °C 9.1 °C 1024.9 hPa SSW 22.2 km/h 22.2 km/h 68 % 0.0 mm 51.0 W/m2 CLR
08:56 15.0 °C 9.1 °C 1024.9 hPa SSW 22.2 km/h 22.2 km/h 68 % 0.0 mm 204.0 W/m2 FEW
08:58 15.0 °C 8.9 °C 1024.9 hPa SSW 22.2 km/h 22.2 km/h 67 % 0.0 mm 209.0 W/m2 FEW
09:03 15.6 °C 9.4 °C 1024.9 hPa SSW 22.2 km/h 22.2 km/h 67 % 0.0 mm 225.0 W/m2 CLR
09:08 15.6 °C 9.4 °C 1024.9 hPa SW 24.1 km/h 24.1 km/h 67 % 0.0 mm 248.0 W/m2 CLR
09:13 16.1 °C 10.0 °C 1024.9 hPa SW 32.2 km/h 32.2 km/h 67 % 0.0 mm 264.0 W/m2 CLR
09:18 16.1 °C 10.0 °C 1024.9 hPa SSW 22.2 km/h 22.2 km/h 67 % 0.0 mm 278.0 W/m2 CLR
09:23 16.1 °C 10.0 °C 1024.9 hPa SSW 31.5 km/h 31.5 km/h 67 % 0.0 mm 292.0 W/m2 CLR
09:28 16.1 °C 10.0 °C 1024.9 hPa SW 31.5 km/h 31.5 km/h 67 % 0.0 mm 309.0 W/m2 CLR
09:33 16.1 °C 9.8 °C 1024.9 hPa SSW 25.9 km/h 25.9 km/h 66 % 0.0 mm 325.0 W/m2 CLR
09:38 16.7 °C 10.1 °C 1024.9 hPa SSW 27.8 km/h 27.8 km/h 65 % 0.0 mm 343.0 W/m2 CLR
09:43 16.7 °C 9.8 °C 1024.9 hPa SW 24.1 km/h 24.1 km/h 64 % 0.0 mm 359.0 W/m2 CLR
09:48 16.7 °C 9.8 °C 1025.3 hPa SSW 33.3 km/h 33.3 km/h 64 % 0.0 mm 380.0 W/m2 CLR
09:53 16.7 °C 9.6 °C 1025.3 hPa SW 35.2 km/h 35.2 km/h 63 % 0.0 mm 394.0 W/m2 CLR
09:58 17.2 °C 10.1 °C 1025.3 hPa SW 31.5 km/h 31.5 km/h 63 % 0.0 mm 411.0 W/m2 CLR
10:03 17.2 °C 10.1 °C 1025.3 hPa SW 33.3 km/h 33.3 km/h 63 % 0.0 mm 427.0 W/m2 CLR
10:08 17.2 °C 10.1 °C 1025.3 hPa SSW 29.0 km/h 29.0 km/h 63 % 0.0 mm 443.0 W/m2 CLR
10:13 17.2 °C 9.9 °C 1025.3 hPa SW 31.5 km/h 31.5 km/h 62 % 0.0 mm 464.0 W/m2 CLR
10:18 17.8 °C 10.4 °C 1025.3 hPa WSW 42.6 km/h 42.6 km/h 62 % 0.0 mm 478.0 W/m2 CLR
10:23 17.8 °C 9.9 °C 1025.3 hPa West 31.5 km/h 31.5 km/h 60 % 0.0 mm 494.0 W/m2 CLR
10:28 17.8 °C 10.2 °C 1025.3 hPa SSW 37.0 km/h 37.0 km/h 61 % 0.0 mm 522.0 W/m2 CLR
10:33 17.8 °C 9.9 °C 1025.3 hPa WSW 38.6 km/h 38.6 km/h 60 % 0.0 mm 540.0 W/m2 CLR
10:38 17.8 °C 9.9 °C 1025.3 hPa SW 31.5 km/h 31.5 km/h 60 % 0.0 mm 403.0 W/m2 CLR
10:43 17.8 °C 9.7 °C 1025.3 hPa SW 33.3 km/h 33.3 km/h 59 % 0.0 mm 643.0 W/m2 CLR
10:48 17.8 °C 9.9 °C 1025.3 hPa SW 42.6 km/h 42.6 km/h 60 % 0.0 mm 626.0 W/m2 CLR
10:53 18.3 °C 9.9 °C 1025.3 hPa SSW 27.8 km/h 27.8 km/h 58 % 0.0 mm 622.0 W/m2 CLR
10:58 18.3 °C 10.2 °C 1025.3 hPa SW 33.8 km/h 33.8 km/h 59 % 0.0 mm 605.0 W/m2 CLR
11:03 18.3 °C 9.9 °C 1025.3 hPa SW 31.5 km/h 31.5 km/h 58 % 0.0 mm 626.0 W/m2 CLR
11:08 18.9 °C 10.4 °C 1024.9 hPa SW 35.2 km/h 35.2 km/h 58 % 0.0 mm 649.0 W/m2 CLR
11:13 18.9 °C 10.4 °C 1024.9 hPa SSW 25.9 km/h 25.9 km/h 58 % 0.0 mm 666.0 W/m2 CLR
11:18 18.9 °C 9.9 °C 1025.3 hPa SW 22.5 km/h 22.5 km/h 56 % 0.0 mm 693.0 W/m2 CLR
11:23 19.4 °C 10.2 °C 1025.3 hPa West 38.9 km/h 38.9 km/h 55 % 0.0 mm 670.0 W/m2 CLR
11:28 19.4 °C 9.9 °C 1024.9 hPa SSW 29.0 km/h 29.0 km/h 54 % 0.0 mm 666.0 W/m2 CLR
11:33 20.0 °C 10.4 °C 1024.9 hPa WSW 25.9 km/h 25.9 km/h 54 % 0.0 mm 677.0 W/m2 CLR
11:38 20.0 °C 10.1 °C 1024.9 hPa WSW 37.0 km/h 37.0 km/h 53 % 0.0 mm 686.0 W/m2 CLR
11:43 20.0 °C 9.8 °C 1024.9 hPa SW 31.5 km/h 31.5 km/h 52 % 0.0 mm 698.0 W/m2 CLR
11:48 20.0 °C 9.8 °C 1024.9 hPa SSW 35.2 km/h 35.2 km/h 52 % 0.0 mm 707.0 W/m2 CLR
11:53 20.6 °C 9.8 °C 1024.9 hPa SW 40.7 km/h 40.7 km/h 50 % 0.0 mm 717.0 W/m2 CLR
11:58 20.0 °C 9.3 °C 1024.9 hPa WSW 31.5 km/h 31.5 km/h 50 % 0.0 mm 726.0 W/m2 CLR
12:03 20.6 °C 9.4 °C 1024.9 hPa SW 46.3 km/h 46.3 km/h 49 % 0.0 mm 735.0 W/m2 CLR
12:08 20.6 °C 10.1 °C 1024.9 hPa WSW 31.5 km/h 31.5 km/h 51 % 0.0 mm 744.0 W/m2 CLR
12:13 20.6 °C 9.8 °C 1024.6 hPa SW 33.8 km/h 33.8 km/h 50 % 0.0 mm 749.0 W/m2 CLR
12:18 21.1 °C 9.7 °C 1024.6 hPa WSW 42.6 km/h 42.6 km/h 48 % 0.0 mm 761.0 W/m2 CLR
12:23 20.6 °C 9.4 °C 1024.6 hPa SW 29.6 km/h 29.6 km/h 49 % 0.0 mm 765.0 W/m2 CLR
12:28 21.7 °C 10.2 °C 1024.6 hPa SW 42.6 km/h 42.6 km/h 48 % 0.0 mm 772.0 W/m2 CLR
12:33 21.1 °C 9.7 °C 1024.3 hPa SW 25.9 km/h 25.9 km/h 48 % 0.0 mm 779.0 W/m2 CLR
12:38 21.1 °C 10.3 °C 1024.3 hPa WSW 22.2 km/h 22.2 km/h 50 % 0.0 mm 788.0 W/m2 CLR
12:43 21.7 °C 10.2 °C 1024.3 hPa SW 31.5 km/h 31.5 km/h 48 % 0.0 mm 791.0 W/m2 CLR
12:49 21.7 °C 10.2 °C 1024.3 hPa SW 35.4 km/h 35.4 km/h 48 % 0.0 mm 796.0 W/m2 CLR
12:54 21.7 °C 10.5 °C 1024.3 hPa SW 29.6 km/h 29.6 km/h 49 % 0.0 mm 798.0 W/m2 CLR
12:59 21.7 °C 10.5 °C 1024.3 hPa WSW 35.2 km/h 35.2 km/h 49 % 0.0 mm 805.0 W/m2 CLR
13:04 21.7 °C 10.5 °C 1023.9 hPa SW 31.5 km/h 31.5 km/h 49 % 0.0 mm 810.0 W/m2 CLR
13:09 22.2 °C 10.7 °C 1023.9 hPa West 29.6 km/h 29.6 km/h 48 % 0.0 mm 819.0 W/m2 CLR
13:14 21.7 °C 10.2 °C 1023.9 hPa West 37.0 km/h 37.0 km/h 48 % 0.0 mm 823.0 W/m2 CLR
13:19 21.7 °C 10.5 °C 1023.9 hPa SW 27.4 km/h 27.4 km/h 49 % 0.0 mm 824.0 W/m2 CLR
13:24 21.7 °C 9.8 °C 1023.9 hPa SW 31.5 km/h 31.5 km/h 47 % 0.0 mm 828.0 W/m2 CLR
13:29 22.2 °C 10.4 °C 1023.6 hPa WSW 37.0 km/h 37.0 km/h 47 % 0.0 mm 828.0 W/m2 CLR
13:34 21.7 °C 9.8 °C 1023.6 hPa WSW 40.7 km/h 40.7 km/h 47 % 0.0 mm 833.0 W/m2 CLR
13:39 22.2 °C 10.1 °C 1023.6 hPa West 33.3 km/h 33.3 km/h 46 % 0.0 mm 835.0 W/m2 CLR
13:44 22.2 °C 9.7 °C 1023.6 hPa SW 42.6 km/h 42.6 km/h 45 % 0.0 mm 840.0 W/m2 CLR
13:49 22.2 °C 10.1 °C 1023.2 hPa SW 42.6 km/h 42.6 km/h 46 % 0.0 mm 838.0 W/m2 CLR
13:54 22.2 °C 10.4 °C 1023.2 hPa WSW 31.5 km/h 31.5 km/h 47 % 0.0 mm 840.0 W/m2 CLR
13:59 22.2 °C 9.7 °C 1023.2 hPa West 31.5 km/h 31.5 km/h 45 % 0.0 mm 842.0 W/m2 CLR
14:04 22.2 °C 9.7 °C 1023.2 hPa West 33.8 km/h 33.8 km/h 45 % 0.0 mm 842.0 W/m2 CLR
14:05 22.2 °C 9.1 °C 1023.2 hPa WSW 38.6 km/h 38.6 km/h 43 % 0.0 mm 844.0 W/m2 CLR
14:10 22.8 °C 9.9 °C 1023.2 hPa WSW 38.9 km/h 38.9 km/h 44 % 0.0 mm 842.0 W/m2 CLR
14:15 22.8 °C 10.2 °C 1023.2 hPa West 29.6 km/h 29.6 km/h 45 % 0.0 mm 838.0 W/m2 CLR
14:20 22.8 °C 9.9 °C 1023.2 hPa West 35.2 km/h 35.2 km/h 44 % 0.0 mm 838.0 W/m2 CLR
14:25 22.8 °C 9.9 °C 1023.2 hPa SW 37.0 km/h 37.0 km/h 44 % 0.0 mm 837.0 W/m2 CLR
14:30 22.8 °C 9.9 °C 1023.2 hPa West 33.3 km/h 33.3 km/h 44 % 0.0 mm 838.0 W/m2 CLR
14:35 23.3 °C 10.1 °C 1023.2 hPa WSW 33.8 km/h 33.8 km/h 43 % 0.0 mm 831.0 W/m2 CLR
14:40 23.3 °C 10.4 °C 1023.2 hPa WSW 29.0 km/h 29.0 km/h 44 % 0.0 mm 826.0 W/m2 CLR
14:45 23.9 °C 10.2 °C 1023.2 hPa West 42.6 km/h 42.6 km/h 42 % 0.0 mm 823.0 W/m2 CLR
14:50 23.3 °C 9.7 °C 1023.2 hPa SW 29.6 km/h 29.6 km/h 42 % 0.0 mm 821.0 W/m2 CLR
14:55 23.9 °C 10.2 °C 1023.2 hPa SW 42.6 km/h 42.6 km/h 42 % 0.0 mm 817.0 W/m2 CLR
15:00 23.3 °C 9.7 °C 1022.9 hPa SSW 24.1 km/h 24.1 km/h 42 % 0.0 mm 814.0 W/m2 CLR
15:05 23.9 °C 10.9 °C 1022.9 hPa WSW 33.8 km/h 33.8 km/h 44 % 0.0 mm 807.0 W/m2 CLR
15:10 23.9 °C 10.9 °C 1022.9 hPa WSW 27.8 km/h 27.8 km/h 44 % 0.0 mm 800.0 W/m2 CLR
15:15 23.9 °C 10.6 °C 1022.9 hPa SW 25.9 km/h 25.9 km/h 43 % 0.0 mm 798.0 W/m2 CLR
15:20 23.9 °C 10.6 °C 1022.9 hPa WSW 31.5 km/h 31.5 km/h 43 % 0.0 mm 789.0 W/m2 CLR
15:25 23.9 °C 10.6 °C 1022.9 hPa West 33.3 km/h 33.3 km/h 43 % 0.0 mm 784.0 W/m2 CLR
15:30 23.9 °C 10.9 °C 1022.6 hPa SW 24.1 km/h 24.6 km/h 44 % 0.0 mm 777.0 W/m2 CLR
15:31 23.9 °C 10.6 °C 1022.6 hPa WSW 31.5 km/h 31.5 km/h 43 % 0.0 mm 777.0 W/m2 CLR
15:36 23.9 °C 10.2 °C 1022.6 hPa SW 31.5 km/h 31.5 km/h 42 % 0.0 mm 770.0 W/m2 CLR
15:41 23.9 °C 10.9 °C 1022.6 hPa SW 20.4 km/h 20.4 km/h 44 % 0.0 mm 761.0 W/m2 CLR
15:46 23.9 °C 10.9 °C 1022.6 hPa West 22.2 km/h 22.2 km/h 44 % 0.0 mm 752.0 W/m2 CLR
15:51 23.9 °C 10.6 °C 1022.6 hPa WSW 27.8 km/h 27.8 km/h 43 % 0.0 mm 744.0 W/m2 CLR
15:56 23.9 °C 10.6 °C 1022.6 hPa WSW 33.8 km/h 33.8 km/h 43 % 0.0 mm 735.0 W/m2 CLR
16:01 23.9 °C 10.6 °C 1022.6 hPa SW 42.6 km/h 42.6 km/h 43 % 0.0 mm 726.0 W/m2 CLR
16:06 23.9 °C 10.9 °C 1022.2 hPa SW 31.5 km/h 31.5 km/h 44 % 0.0 mm 719.0 W/m2 CLR
16:11 24.4 °C 11.1 °C 1022.2 hPa WSW 42.6 km/h 42.6 km/h 43 % 0.0 mm 708.0 W/m2 CLR
16:16 24.4 °C 11.1 °C 1022.2 hPa SW 42.6 km/h 42.6 km/h 43 % 0.0 mm 696.0 W/m2 CLR
16:21 23.9 °C 10.6 °C 1021.9 hPa WSW 25.9 km/h 25.9 km/h 43 % 0.0 mm 682.0 W/m2 CLR
16:26 24.4 °C 11.1 °C 1021.9 hPa WSW 35.2 km/h 35.2 km/h 43 % 0.0 mm 670.0 W/m2 CLR
16:31 24.4 °C 10.7 °C 1021.9 hPa WSW 27.8 km/h 27.8 km/h 42 % 0.0 mm 663.0 W/m2 CLR
16:36 24.4 °C 11.1 °C 1021.9 hPa WSW 37.0 km/h 37.0 km/h 43 % 0.0 mm 649.0 W/m2 CLR
16:41 24.4 °C 11.1 °C 1021.9 hPa WSW 27.8 km/h 27.8 km/h 43 % 0.0 mm 636.0 W/m2 CLR
16:46 24.4 °C 11.1 °C 1021.6 hPa WSW 31.5 km/h 31.5 km/h 43 % 0.0 mm 629.0 W/m2 CLR
16:51 24.4 °C 10.7 °C 1021.6 hPa SW 33.3 km/h 33.3 km/h 42 % 0.0 mm 619.0 W/m2 CLR
16:56 23.9 °C 10.2 °C 1021.6 hPa WSW 27.8 km/h 27.8 km/h 42 % 0.0 mm 605.0 W/m2 CLR
17:01 23.9 °C 10.2 °C 1021.6 hPa SW 22.2 km/h 22.2 km/h 42 % 0.0 mm 591.0 W/m2 CLR
17:06 24.4 °C 10.3 °C 1021.6 hPa WSW 29.6 km/h 29.6 km/h 41 % 0.0 mm 578.0 W/m2 CLR
17:11 24.4 °C 9.9 °C 1021.2 hPa WSW 29.6 km/h 29.6 km/h 40 % 0.0 mm 564.0 W/m2 CLR
17:16 24.4 °C 9.6 °C 1021.6 hPa West 33.3 km/h 33.3 km/h 39 % 0.0 mm 555.0 W/m2 CLR
17:21 24.4 °C 10.3 °C 1021.2 hPa WSW 27.8 km/h 27.8 km/h 41 % 0.0 mm 543.0 W/m2 CLR
17:26 24.4 °C 9.9 °C 1021.2 hPa SW 31.5 km/h 31.5 km/h 40 % 0.0 mm 529.0 W/m2 CLR
17:31 24.4 °C 9.9 °C 1021.2 hPa WSW 30.6 km/h 30.6 km/h 40 % 0.0 mm 504.0 W/m2 CLR
17:36 24.4 °C 9.9 °C 1021.2 hPa SW 30.6 km/h 30.6 km/h 40 % 0.0 mm 504.0 W/m2 CLR
17:41 24.4 °C 10.3 °C 1021.2 hPa WSW 20.9 km/h 20.9 km/h 41 % 0.0 mm 487.0 W/m2 CLR
17:46 24.4 °C 10.3 °C 1021.2 hPa West 24.1 km/h 24.1 km/h 41 % 0.0 mm 468.0 W/m2 CLR
17:51 24.4 °C 9.2 °C 1021.2 hPa SW 31.5 km/h 31.5 km/h 38 % 0.0 mm 445.0 W/m2 CLR
17:56 24.4 °C 9.9 °C 1021.2 hPa WSW 27.8 km/h 27.8 km/h 40 % 0.0 mm 311.0 W/m2 CLR
18:01 24.4 °C 9.6 °C 1021.2 hPa WSW 27.8 km/h 27.8 km/h 39 % 0.0 mm 306.0 W/m2 CLR
18:06 23.9 °C 9.1 °C 1021.2 hPa SW 18.5 km/h 18.5 km/h 39 % 0.0 mm 371.0 W/m2 CLR
18:11 24.4 °C 9.6 °C 1021.2 hPa WSW 24.1 km/h 24.1 km/h 39 % 0.0 mm 431.0 W/m2 CLR
18:16 24.4 °C 9.6 °C 1021.2 hPa WSW 29.6 km/h 29.6 km/h 39 % 0.0 mm 413.0 W/m2 CLR
18:21 24.4 °C 9.9 °C 1020.9 hPa WSW 22.5 km/h 22.5 km/h 40 % 0.0 mm 373.0 W/m2 CLR
18:26 24.4 °C 10.3 °C 1020.9 hPa SW 24.1 km/h 24.1 km/h 41 % 0.0 mm 350.0 W/m2 CLR
18:31 23.9 °C 9.8 °C 1020.9 hPa WSW 31.5 km/h 31.5 km/h 41 % 0.0 mm 330.0 W/m2 CLR
18:36 23.9 °C 10.2 °C 1020.9 hPa WSW 24.1 km/h 24.1 km/h 42 % 0.0 mm 313.0 W/m2 CLR
18:41 23.9 °C 10.2 °C 1021.2 hPa WSW 29.6 km/h 29.6 km/h 42 % 0.0 mm 295.0 W/m2 CLR
18:46 23.9 °C 9.8 °C 1020.9 hPa WSW 35.2 km/h 35.2 km/h 41 % 0.0 mm 281.0 W/m2 CLR
18:51 23.3 °C 9.3 °C 1020.9 hPa WSW 33.3 km/h 33.3 km/h 41 % 0.0 mm 258.0 W/m2 CLR
18:56 23.3 °C 9.3 °C 1020.9 hPa WSW 30.6 km/h 30.6 km/h 41 % 0.0 mm 241.0 W/m2 CLR
19:01 23.3 °C 9.3 °C 1020.9 hPa SW 24.1 km/h 24.1 km/h 41 % 0.0 mm 221.0 W/m2 CLR
19:06 23.3 °C 9.3 °C 1020.9 hPa SW 22.2 km/h 22.2 km/h 41 % 0.0 mm 204.0 W/m2 CLR
19:12 23.3 °C 8.9 °C 1020.9 hPa West 24.1 km/h 24.1 km/h 40 % 0.0 mm 183.0 W/m2 CLR
19:17 23.3 °C 9.3 °C 1020.9 hPa SW 27.8 km/h 27.8 km/h 41 % 0.0 mm 160.0 W/m2 CLR
19:22 22.8 °C 8.8 °C 1020.9 hPa SSW 18.5 km/h 18.5 km/h 41 % 0.0 mm 144.0 W/m2 CLR
19:27 22.8 °C 9.2 °C 1020.9 hPa WSW 25.9 km/h 25.9 km/h 42 % 0.0 mm 127.0 W/m2 CLR
19:32 22.8 °C 9.2 °C 1020.9 hPa WSW 27.8 km/h 27.8 km/h 42 % 0.0 mm 107.0 W/m2 CLR
19:37 22.2 °C 9.1 °C 1020.9 hPa WSW 20.9 km/h 20.9 km/h 43 % 0.0 mm 90.0 W/m2 CLR
19:42 22.2 °C 9.1 °C 1020.9 hPa SW 18.5 km/h 18.5 km/h 43 % 0.0 mm 76.0 W/m2 FEW
19:47 22.2 °C 8.7 °C 1020.9 hPa SSW 22.2 km/h 22.2 km/h 42 % 0.0 mm 53.0 W/m2 SCT
19:52 22.2 °C 9.1 °C 1020.9 hPa SSW 24.1 km/h 24.1 km/h 43 % 0.0 mm 46.0 W/m2 SCT
19:57 22.2 °C 9.1 °C 1020.9 hPa SW 22.2 km/h 22.2 km/h 43 % 0.0 mm 35.0 W/m2 BKN
20:02 22.2 °C 9.1 °C 1020.9 hPa SW 25.9 km/h 25.9 km/h 43 % 0.0 mm 25.0 W/m2 BKN
20:07 21.7 °C 8.9 °C 1020.9 hPa SW 20.4 km/h 20.4 km/h 44 % 0.0 mm 14.0 W/m2 BKN
20:12 21.7 °C 9.2 °C 1020.9 hPa SW 9.7 km/h 10.6 km/h 45 % 0.0 mm 11.0 W/m2 BKN
20:17 21.1 °C 9.1 °C 1020.9 hPa SW 5.6 km/h 5.6 km/h 46 % 0.0 mm 9.0 W/m2 BKN
20:22 20.6 °C 8.6 °C 1020.9 hPa SW 5.6 km/h 5.6 km/h 46 % 0.0 mm 5.0 W/m2 BKN
20:27 20.6 °C 8.8 °C 1020.9 hPa SW 13.0 km/h 13.0 km/h 47 % 0.0 mm 0.0 W/m2 OVC
20:32 20.0 °C 8.3 °C 1020.9 hPa SW 5.6 km/h 5.6 km/h 47 % 0.0 mm 0.0 W/m2 OVC
20:37 19.4 °C 7.8 °C 1020.9 hPa SSW 3.7 km/h   47 % 0.0 mm 0.0 W/m2 OVC
20:42 18.9 °C 7.6 °C 1021.2 hPa South 3.7 km/h   48 % 0.0 mm 0.0 W/m2 CLR
20:47 18.9 °C 7.6 °C 1021.2 hPa Calm     48 % 0.0 mm 0.0 W/m2 CLR
20:52 18.9 °C 7.9 °C 1021.2 hPa Calm     49 % 0.0 mm 0.0 W/m2 CLR
20:57 18.9 °C 7.9 °C 1021.2 hPa SSW 5.6 km/h 5.6 km/h 49 % 0.0 mm 0.0 W/m2 CLR
21:02 18.3 °C 7.7 °C 1021.2 hPa Calm     50 % 0.0 mm 0.0 W/m2 CLR
21:07 17.8 °C 7.2 °C 1021.6 hPa SSW 7.4 km/h 7.4 km/h 50 % 0.0 mm 0.0 W/m2 CLR
21:12 17.2 °C 6.7 °C 1021.6 hPa SSW 3.7 km/h 3.7 km/h 50 % 0.0 mm 0.0 W/m2 CLR
21:17 16.7 °C 6.5 °C 1021.6 hPa Calm     51 % 0.0 mm 0.0 W/m2 CLR
21:22 16.1 °C 5.9 °C 1021.6 hPa Calm     51 % 0.0 mm 0.0 W/m2 CLR
21:27 15.6 °C 5.4 °C 1021.6 hPa Calm     51 % 0.0 mm 0.0 W/m2 CLR
21:32 15.0 °C 4.9 °C 1021.6 hPa Calm     51 % 0.0 mm 0.0 W/m2 CLR
21:37 14.4 °C 4.7 °C 1021.6 hPa Calm     52 % 0.0 mm 0.0 W/m2 CLR
21:42 14.4 °C 5.0 °C 1021.6 hPa Calm     53 % 0.0 mm 0.0 W/m2 CLR
21:47 13.9 °C 4.7 °C 1021.9 hPa Calm     54 % 0.0 mm 0.0 W/m2 CLR
21:52 13.9 °C 4.7 °C 1021.9 hPa Calm     54 % 0.0 mm 0.0 W/m2 CLR
21:57 13.3 °C 4.5 °C 1021.9 hPa Calm     55 % 0.0 mm 0.0 W/m2 CLR
22:02 13.3 °C 4.5 °C 1021.9 hPa Calm     55 % 0.0 mm 0.0 W/m2 CLR
22:07 13.3 °C 4.7 °C 1021.9 hPa Calm     56 % 0.0 mm 0.0 W/m2 CLR
22:12 13.3 °C 5.0 °C 1021.9 hPa Calm     57 % 0.0 mm 0.0 W/m2 CLR
22:17 13.9 °C 5.8 °C 1021.9 hPa Calm     58 % 0.0 mm 0.0 W/m2 CLR
22:22 13.9 °C 6.5 °C 1021.9 hPa Calm     61 % 0.0 mm 0.0 W/m2 CLR
22:27 13.9 °C 6.9 °C 1021.9 hPa SSW 3.2 km/h 3.2 km/h 63 % 0.0 mm 0.0 W/m2 CLR
22:32 13.9 °C 6.9 °C 1021.9 hPa Calm     63 % 0.0 mm 0.0 W/m2 CLR
22:37 13.3 °C 6.4 °C 1021.9 hPa Calm     63 % 0.0 mm 0.0 W/m2 CLR
22:42 13.3 °C 6.7 °C 1021.9 hPa Calm     64 % 0.0 mm 0.0 W/m2 CLR
22:47 13.3 °C 6.7 °C 1021.9 hPa Calm     64 % 0.0 mm 0.0 W/m2 CLR
22:52 12.8 °C 6.1 °C 1022.2 hPa Calm     64 % 0.0 mm 0.0 W/m2 CLR
22:57 12.8 °C 6.3 °C 1022.2 hPa Calm     65 % 0.0 mm 0.0 W/m2 CLR
23:02 12.2 °C 5.8 °C 1022.2 hPa Calm     65 % 0.0 mm 0.0 W/m2 CLR
23:07 12.2 °C 5.8 °C 1022.2 hPa Calm     65 % 0.0 mm 0.0 W/m2 CLR
23:12 12.2 °C 6.1 °C 1022.2 hPa SSE 13.0 km/h 13.0 km/h 66 % 0.0 mm 0.0 W/m2 CLR
23:17 12.2 °C 6.1 °C 1022.2 hPa South 7.4 km/h 7.4 km/h 66 % 0.0 mm 0.0 W/m2 CLR
23:22 12.8 °C 6.3 °C 1022.2 hPa South 7.4 km/h 7.4 km/h 65 % 0.0 mm 0.0 W/m2 CLR
23:27 13.3 °C 6.7 °C 1022.2 hPa South 7.4 km/h 7.4 km/h 64 % 0.0 mm 0.0 W/m2 CLR
23:32 13.3 °C 6.7 °C 1022.2 hPa SSE 9.7 km/h 9.7 km/h 64 % 0.0 mm 0.0 W/m2 CLR
23:37 13.3 °C 6.7 °C 1022.2 hPa Calm     64 % 0.0 mm 0.0 W/m2 CLR
23:42 13.3 °C 6.9 °C 1022.6 hPa Calm     65 % 0.0 mm 0.0 W/m2 CLR
23:47 12.8 °C 6.8 °C 1022.2 hPa Calm     67 % 0.0 mm 0.0 W/m2 CLR
23:52 12.8 °C 6.8 °C 1022.2 hPa Calm     67 % 0.0 mm 0.0 W/m2 CLR
23:57 12.8 °C 6.8 °C 1022.6 hPa Calm     67 % 0.0 mm 0.0 W/m2 CLR
Lo Temps de Massalio
Compliments of Weather Underground - 1.25 mb